sensor_id;sensor_type;location;lat;lon;timestamp;pressure;altitude;pressure_sealevel;temperature;humidity
30636;BME280;17400;52.392;9.750;2023-04-22T00:01:04;100484.28;;;14.41;56.20
30636;BME280;17400;52.392;9.750;2023-04-22T00:03:33;100488.75;;;14.35;56.54
30636;BME280;17400;52.392;9.750;2023-04-22T00:06:01;100485.41;;;14.52;55.73
30636;BME280;17400;52.392;9.750;2023-04-22T00:08:29;100481.78;;;14.39;56.30
30636;BME280;17400;52.392;9.750;2023-04-22T00:10:57;100479.38;;;14.31;57.03
30636;BME280;17400;52.392;9.750;2023-04-22T00:13:25;100486.16;;;14.40;56.64
30636;BME280;17400;52.392;9.750;2023-04-22T00:15:52;100483.00;;;14.43;56.89
30636;BME280;17400;52.392;9.750;2023-04-22T00:18:20;100474.00;;;14.43;56.81
30636;BME280;17400;52.392;9.750;2023-04-22T00:20:49;100466.81;;;14.30;57.20
30636;BME280;17400;52.392;9.750;2023-04-22T00:23:17;100454.88;;;14.31;57.06
30636;BME280;17400;52.392;9.750;2023-04-22T00:25:44;100453.00;;;14.31;57.40
30636;BME280;17400;52.392;9.750;2023-04-22T00:28:12;100453.03;;;14.25;57.64
30636;BME280;17400;52.392;9.750;2023-04-22T00:30:39;100454.28;;;14.29;57.52
30636;BME280;17400;52.392;9.750;2023-04-22T00:33:07;100448.06;;;14.22;58.19
30636;BME280;17400;52.392;9.750;2023-04-22T00:35:35;100441.94;;;14.26;58.02
30636;BME280;17400;52.392;9.750;2023-04-22T00:38:04;100438.38;;;14.07;58.93
30636;BME280;17400;52.392;9.750;2023-04-22T00:40:32;100442.63;;;14.22;58.21
30636;BME280;17400;52.392;9.750;2023-04-22T00:43:00;100447.16;;;14.09;59.02
30636;BME280;17400;52.392;9.750;2023-04-22T00:45:29;100448.53;;;14.00;59.87
30636;BME280;17400;52.392;9.750;2023-04-22T00:47:57;100447.16;;;13.91;60.65
30636;BME280;17400;52.392;9.750;2023-04-22T00:50:25;100449.25;;;13.89;60.83
30636;BME280;17400;52.392;9.750;2023-04-22T00:52:53;100453.09;;;13.81;61.18
30636;BME280;17400;52.392;9.750;2023-04-22T00:55:22;100442.16;;;13.88;61.27
30636;BME280;17400;52.392;9.750;2023-04-22T00:57:51;100441.78;;;13.84;61.54
30636;BME280;17400;52.392;9.750;2023-04-22T01:00:18;100446.38;;;13.83;61.72
30636;BME280;17400;52.392;9.750;2023-04-22T01:02:52;100440.78;;;13.78;62.35
30636;BME280;17400;52.392;9.750;2023-04-22T01:05:20;100447.16;;;13.72;62.33
30636;BME280;17400;52.392;9.750;2023-04-22T01:07:48;100461.09;;;13.76;62.37
30636;BME280;17400;52.392;9.750;2023-04-22T01:10:17;100451.56;;;13.66;63.24
30636;BME280;17400;52.392;9.750;2023-04-22T01:12:46;100451.81;;;13.65;63.68
30636;BME280;17400;52.392;9.750;2023-04-22T01:15:14;100444.03;;;13.69;63.79
30636;BME280;17400;52.392;9.750;2023-04-22T01:17:41;100441.91;;;13.52;64.94
30636;BME280;17400;52.392;9.750;2023-04-22T01:20:10;100449.53;;;13.62;64.19
30636;BME280;17400;52.392;9.750;2023-04-22T01:22:40;100451.22;;;13.63;64.06
30636;BME280;17400;52.392;9.750;2023-04-22T01:25:10;100441.06;;;13.52;65.33
30636;BME280;17400;52.392;9.750;2023-04-22T01:27:38;100447.53;;;13.50;65.27
30636;BME280;17400;52.392;9.750;2023-04-22T01:30:07;100458.88;;;13.47;66.06
30636;BME280;17400;52.392;9.750;2023-04-22T01:32:35;100448.88;;;13.41;66.53
30636;BME280;17400;52.392;9.750;2023-04-22T01:35:04;100447.25;;;13.33;67.29
30636;BME280;17400;52.392;9.750;2023-04-22T01:37:33;100442.31;;;13.24;68.15
30636;BME280;17400;52.392;9.750;2023-04-22T01:40:01;100448.09;;;13.34;67.55
30636;BME280;17400;52.392;9.750;2023-04-22T01:42:31;100449.34;;;13.38;67.89
30636;BME280;17400;52.392;9.750;2023-04-22T01:44:59;100445.59;;;13.32;68.67
30636;BME280;17400;52.392;9.750;2023-04-22T01:47:27;100447.47;;;13.32;68.55
30636;BME280;17400;52.392;9.750;2023-04-22T01:49:54;100454.16;;;13.29;69.00
30636;BME280;17400;52.392;9.750;2023-04-22T01:52:22;100445.81;;;13.31;68.94
30636;BME280;17400;52.392;9.750;2023-04-22T01:54:50;100443.69;;;13.33;68.90
30636;BME280;17400;52.392;9.750;2023-04-22T01:57:17;100446.25;;;13.28;69.36
30636;BME280;17400;52.392;9.750;2023-04-22T01:59:47;100443.09;;;13.31;69.18
30636;BME280;17400;52.392;9.750;2023-04-22T02:02:16;100441.09;;;13.20;70.16
30636;BME280;17400;52.392;9.750;2023-04-22T02:04:43;100440.38;;;13.31;69.24
30636;BME280;17400;52.392;9.750;2023-04-22T02:07:11;100435.41;;;13.21;70.26
30636;BME280;17400;52.392;9.750;2023-04-22T02:09:39;100443.41;;;13.16;70.79
30636;BME280;17400;52.392;9.750;2023-04-22T02:12:07;100436.91;;;13.17;70.30
30636;BME280;17400;52.392;9.750;2023-04-22T02:14:35;100436.56;;;13.07;71.53
30636;BME280;17400;52.392;9.750;2023-04-22T02:17:04;100439.06;;;13.08;71.68
30636;BME280;17400;52.392;9.750;2023-04-22T02:19:32;100434.31;;;13.04;72.02
30636;BME280;17400;52.392;9.750;2023-04-22T02:22:00;100436.22;;;13.03;72.61
30636;BME280;17400;52.392;9.750;2023-04-22T02:24:28;100430.59;;;12.98;72.76
30636;BME280;17400;52.392;9.750;2023-04-22T02:26:55;100429.19;;;12.89;73.19
30636;BME280;17400;52.392;9.750;2023-04-22T02:29:23;100430.41;;;12.93;73.70
30636;BME280;17400;52.392;9.750;2023-04-22T02:31:51;100428.75;;;12.92;73.41
30636;BME280;17400;52.392;9.750;2023-04-22T02:34:20;100426.66;;;12.94;73.49
30636;BME280;17400;52.392;9.750;2023-04-22T02:36:48;100423.09;;;12.93;73.68
30636;BME280;17400;52.392;9.750;2023-04-22T02:39:15;100421.66;;;12.91;74.15
30636;BME280;17400;52.392;9.750;2023-04-22T02:41:43;100418.34;;;12.89;74.16
30636;BME280;17400;52.392;9.750;2023-04-22T02:44:11;100418.34;;;12.89;74.46
30636;BME280;17400;52.392;9.750;2023-04-22T02:46:38;100409.81;;;12.78;75.70
30636;BME280;17400;52.392;9.750;2023-04-22T02:49:06;100417.75;;;12.80;75.29
30636;BME280;17400;52.392;9.750;2023-04-22T02:51:36;100424.69;;;12.76;75.95
30636;BME280;17400;52.392;9.750;2023-04-22T02:54:04;100414.25;;;12.73;76.30
30636;BME280;17400;52.392;9.750;2023-04-22T02:56:32;100412.63;;;12.65;76.82
30636;BME280;17400;52.392;9.750;2023-04-22T02:59:00;100414.16;;;12.54;77.99
30636;BME280;17400;52.392;9.750;2023-04-22T03:01:27;100408.03;;;12.65;77.01
30636;BME280;17400;52.392;9.750;2023-04-22T03:03:55;100413.50;;;12.59;77.46
30636;BME280;17400;52.392;9.750;2023-04-22T03:06:23;100405.69;;;12.37;79.46
30636;BME280;17400;52.392;9.750;2023-04-22T03:08:52;100402.75;;;12.39;80.00
30636;BME280;17400;52.392;9.750;2023-04-22T03:11:19;100402.56;;;12.33;79.97
30636;BME280;17400;52.392;9.750;2023-04-22T03:13:47;100403.19;;;12.29;80.45
30636;BME280;17400;52.392;9.750;2023-04-22T03:16:15;100404.47;;;12.33;80.61
30636;BME280;17400;52.392;9.750;2023-04-22T03:18:43;100400.88;;;12.32;80.70
30636;BME280;17400;52.392;9.750;2023-04-22T03:21:11;100400.31;;;12.24;81.79
30636;BME280;17400;52.392;9.750;2023-04-22T03:23:38;100398.84;;;12.28;81.66
30636;BME280;17400;52.392;9.750;2023-04-22T03:26:07;100399.25;;;12.25;82.29
30636;BME280;17400;52.392;9.750;2023-04-22T03:28:35;100398.47;;;12.18;82.71
30636;BME280;17400;52.392;9.750;2023-04-22T03:31:02;100388.41;;;12.25;81.98
30636;BME280;17400;52.392;9.750;2023-04-22T03:33:31;100388.59;;;12.30;81.62
30636;BME280;17400;52.392;9.750;2023-04-22T03:35:58;100387.78;;;12.23;82.27
30636;BME280;17400;52.392;9.750;2023-04-22T03:38:26;100384.25;;;12.15;83.29
30636;BME280;17400;52.392;9.750;2023-04-22T03:40:54;100386.97;;;12.15;83.05
30636;BME280;17400;52.392;9.750;2023-04-22T03:43:23;100389.09;;;12.13;83.12
30636;BME280;17400;52.392;9.750;2023-04-22T03:45:51;100387.78;;;12.23;82.57
30636;BME280;17400;52.392;9.750;2023-04-22T03:48:18;100394.91;;;12.17;83.17
30636;BME280;17400;52.392;9.750;2023-04-22T03:50:46;100397.22;;;12.13;83.83
30636;BME280;17400;52.392;9.750;2023-04-22T03:53:13;100405.38;;;12.13;83.65
30636;BME280;17400;52.392;9.750;2023-04-22T03:55:41;100398.06;;;12.14;83.84
30636;BME280;17400;52.392;9.750;2023-04-22T03:58:09;100398.53;;;12.04;84.89
30636;BME280;17400;52.392;9.750;2023-04-22T04:00:38;100402.03;;;12.11;83.77
30636;BME280;17400;52.392;9.750;2023-04-22T04:03:05;100403.50;;;12.07;83.98
30636;BME280;17400;52.392;9.750;2023-04-22T04:05:34;100400.19;;;11.98;84.78
30636;BME280;17400;52.392;9.750;2023-04-22T04:08:02;100404.56;;;11.99;85.39
30636;BME280;17400;52.392;9.750;2023-04-22T04:10:29;100400.41;;;11.97;85.73
30636;BME280;17400;52.392;9.750;2023-04-22T04:12:57;100396.44;;;11.99;85.01
30636;BME280;17400;52.392;9.750;2023-04-22T04:15:25;100401.22;;;12.04;85.20
30636;BME280;17400;52.392;9.750;2023-04-22T04:17:54;100405.41;;;11.93;86.52
30636;BME280;17400;52.392;9.750;2023-04-22T04:20:22;100404.56;;;11.93;86.57
30636;BME280;17400;52.392;9.750;2023-04-22T04:22:50;100403.13;;;11.90;87.10
30636;BME280;17400;52.392;9.750;2023-04-22T04:25:17;100393.97;;;11.84;87.52
30636;BME280;17400;52.392;9.750;2023-04-22T04:27:46;100398.78;;;11.76;88.53
30636;BME280;17400;52.392;9.750;2023-04-22T04:30:15;100392.94;;;11.79;88.87
30636;BME280;17400;52.392;9.750;2023-04-22T04:32:43;100397.13;;;11.68;89.37
30636;BME280;17400;52.392;9.750;2023-04-22T04:35:13;100392.53;;;11.75;89.33
30636;BME280;17400;52.392;9.750;2023-04-22T04:37:41;100395.84;;;11.77;89.03
30636;BME280;17400;52.392;9.750;2023-04-22T04:40:09;100388.13;;;11.74;89.61
30636;BME280;17400;52.392;9.750;2023-04-22T04:42:39;100382.47;;;11.82;88.93
30636;BME280;17400;52.392;9.750;2023-04-22T04:45:08;100385.44;;;11.74;89.96
30636;BME280;17400;52.392;9.750;2023-04-22T04:47:36;100383.97;;;11.78;89.90
30636;BME280;17400;52.392;9.750;2023-04-22T04:50:05;100375.81;;;11.78;90.16
30636;BME280;17400;52.392;9.750;2023-04-22T04:52:34;100385.81;;;11.84;89.59
30636;BME280;17400;52.392;9.750;2023-04-22T04:55:02;100374.13;;;11.91;88.76
30636;BME280;17400;52.392;9.750;2023-04-22T04:57:30;100375.78;;;11.98;88.23
30636;BME280;17400;52.392;9.750;2023-04-22T04:59:57;100379.94;;;12.01;87.73
30636;BME280;17400;52.392;9.750;2023-04-22T05:02:25;100373.69;;;12.00;88.51
30636;BME280;17400;52.392;9.750;2023-04-22T05:04:53;100379.13;;;11.94;89.23
30636;BME280;17400;52.392;9.750;2023-04-22T05:07:20;100376.38;;;12.07;88.15
30636;BME280;17400;52.392;9.750;2023-04-22T05:09:51;100372.66;;;12.02;88.38
30636;BME280;17400;52.392;9.750;2023-04-22T05:12:18;100382.00;;;12.12;87.51
30636;BME280;17400;52.392;9.750;2023-04-22T05:14:46;100374.47;;;12.14;87.36
30636;BME280;17400;52.392;9.750;2023-04-22T05:17:13;100380.91;;;12.20;87.21
30636;BME280;17400;52.392;9.750;2023-04-22T05:19:41;100380.25;;;12.25;86.79
30636;BME280;17400;52.392;9.750;2023-04-22T05:22:09;100380.28;;;12.18;87.93
30636;BME280;17400;52.392;9.750;2023-04-22T05:24:38;100384.03;;;12.24;87.44
30636;BME280;17400;52.392;9.750;2023-04-22T05:27:07;100382.34;;;12.29;87.04
30636;BME280;17400;52.392;9.750;2023-04-22T05:29:35;100381.28;;;12.30;86.86
30636;BME280;17400;52.392;9.750;2023-04-22T05:32:03;100381.72;;;12.27;87.69
30636;BME280;17400;52.392;9.750;2023-04-22T05:34:31;100383.16;;;12.30;87.81
30636;BME280;17400;52.392;9.750;2023-04-22T05:37:00;100389.81;;;12.34;87.59
30636;BME280;17400;52.392;9.750;2023-04-22T05:39:28;100392.97;;;12.31;87.95
30636;BME280;17400;52.392;9.750;2023-04-22T05:41:56;100387.91;;;12.41;87.34
30636;BME280;17400;52.392;9.750;2023-04-22T05:44:25;100391.44;;;12.42;87.39
30636;BME280;17400;52.392;9.750;2023-04-22T05:46:53;100390.84;;;12.40;87.73
30636;BME280;17400;52.392;9.750;2023-04-22T05:49:21;100391.06;;;12.31;88.48
30636;BME280;17400;52.392;9.750;2023-04-22T05:51:49;100386.06;;;12.35;88.39
30636;BME280;17400;52.392;9.750;2023-04-22T05:54:26;100386.84;;;12.49;87.26
30636;BME280;17400;52.392;9.750;2023-04-22T05:56:55;100385.56;;;12.52;87.04
30636;BME280;17400;52.392;9.750;2023-04-22T05:59:25;100380.78;;;12.47;87.85
30636;BME280;17400;52.392;9.750;2023-04-22T06:01:52;100387.84;;;12.55;87.81
30636;BME280;17400;52.392;9.750;2023-04-22T06:04:20;100377.97;;;12.60;87.35
30636;BME280;17400;52.392;9.750;2023-04-22T06:06:49;100377.94;;;12.67;87.53
30636;BME280;17400;52.392;9.750;2023-04-22T06:09:19;100377.06;;;12.73;86.64
30636;BME280;17400;52.392;9.750;2023-04-22T06:11:47;100379.09;;;12.78;86.48
30636;BME280;17400;52.392;9.750;2023-04-22T06:14:15;100381.13;;;12.89;85.63
30636;BME280;17400;52.392;9.750;2023-04-22T06:16:44;100378.69;;;13.06;85.12
30636;BME280;17400;52.392;9.750;2023-04-22T06:19:11;100366.09;;;13.12;85.07
30636;BME280;17400;52.392;9.750;2023-04-22T06:21:39;100373.53;;;13.23;84.34
30636;BME280;17400;52.392;9.750;2023-04-22T06:24:08;100376.16;;;13.37;82.95
30636;BME280;17400;52.392;9.750;2023-04-22T06:26:36;100378.72;;;13.50;82.59
30636;BME280;17400;52.392;9.750;2023-04-22T06:29:04;100375.47;;;13.60;81.06
30636;BME280;17400;52.392;9.750;2023-04-22T06:31:32;100377.00;;;13.74;80.70
30636;BME280;17400;52.392;9.750;2023-04-22T06:34:01;100374.59;;;13.85;79.93
30636;BME280;17400;52.392;9.750;2023-04-22T06:36:30;100371.56;;;13.93;80.32
30636;BME280;17400;52.392;9.750;2023-04-22T06:39:02;100374.66;;;13.96;79.11
30636;BME280;17400;52.392;9.750;2023-04-22T06:41:30;100370.44;;;14.00;79.27
30636;BME280;17400;52.392;9.750;2023-04-22T06:43:58;100369.06;;;14.10;79.03
30636;BME280;17400;52.392;9.750;2023-04-22T06:46:26;100365.09;;;14.24;78.36
30636;BME280;17400;52.392;9.750;2023-04-22T06:48:54;100369.63;;;14.30;77.35
30636;BME280;17400;52.392;9.750;2023-04-22T06:51:23;100360.56;;;14.48;77.28
30636;BME280;17400;52.392;9.750;2023-04-22T06:53:58;100356.59;;;14.63;76.17
30636;BME280;17400;52.392;9.750;2023-04-22T06:56:26;100351.44;;;14.73;75.93
30636;BME280;17400;52.392;9.750;2023-04-22T06:58:53;100344.59;;;14.82;74.06
30636;BME280;17400;52.392;9.750;2023-04-22T07:01:21;100336.31;;;15.01;74.36
30636;BME280;17400;52.392;9.750;2023-04-22T07:03:49;100336.19;;;15.08;72.25
30636;BME280;17400;52.392;9.750;2023-04-22T07:06:17;100339.41;;;15.16;71.39
30636;BME280;17400;52.392;9.750;2023-04-22T07:08:46;100341.28;;;15.28;70.30
30636;BME280;17400;52.392;9.750;2023-04-22T07:11:13;100340.72;;;15.38;69.49
30636;BME280;17400;52.392;9.750;2023-04-22T07:13:41;100345.31;;;15.37;68.93
30636;BME280;17400;52.392;9.750;2023-04-22T07:16:09;100345.31;;;15.49;68.62
30636;BME280;17400;52.392;9.750;2023-04-22T07:18:36;100341.16;;;15.58;69.56
30636;BME280;17400;52.392;9.750;2023-04-22T07:21:05;100348.28;;;15.59;68.07
30636;BME280;17400;52.392;9.750;2023-04-22T07:23:32;100343.66;;;15.60;68.51
30636;BME280;17400;52.392;9.750;2023-04-22T07:26:02;100333.44;;;15.67;68.37
30636;BME280;17400;52.392;9.750;2023-04-22T07:28:32;100331.63;;;15.73;68.22
30636;BME280;17400;52.392;9.750;2023-04-22T07:31:00;100333.06;;;15.75;67.88
30636;BME280;17400;52.392;9.750;2023-04-22T07:33:28;100337.19;;;15.78;68.89
30636;BME280;17400;52.392;9.750;2023-04-22T07:35:56;100326.66;;;15.81;68.51
30636;BME280;17400;52.392;9.750;2023-04-22T07:38:24;100330.94;;;15.89;70.06
30636;BME280;17400;52.392;9.750;2023-04-22T07:40:52;100329.22;;;16.00;69.80
30636;BME280;17400;52.392;9.750;2023-04-22T07:43:21;100330.50;;;16.09;68.27
30636;BME280;17400;52.392;9.750;2023-04-22T07:45:49;100327.38;;;16.18;68.15
30636;BME280;17400;52.392;9.750;2023-04-22T07:48:16;100328.31;;;16.23;68.17
30636;BME280;17400;52.392;9.750;2023-04-22T07:50:44;100322.78;;;16.35;68.42
30636;BME280;17400;52.392;9.750;2023-04-22T07:53:12;100329.28;;;16.46;68.17
30636;BME280;17400;52.392;9.750;2023-04-22T07:55:41;100327.13;;;16.65;68.17
30636;BME280;17400;52.392;9.750;2023-04-22T07:58:09;100325.22;;;16.82;67.28
30636;BME280;17400;52.392;9.750;2023-04-22T08:00:38;100327.50;;;16.86;67.31
30636;BME280;17400;52.392;9.750;2023-04-22T08:03:05;100326.50;;;16.92;65.81
30636;BME280;17400;52.392;9.750;2023-04-22T08:05:33;100326.25;;;17.10;66.18
30636;BME280;17400;52.392;9.750;2023-04-22T08:08:01;100330.28;;;17.25;65.09
30636;BME280;17400;52.392;9.750;2023-04-22T08:10:30;100331.25;;;17.36;65.25
30636;BME280;17400;52.392;9.750;2023-04-22T08:12:59;100327.72;;;17.35;62.97
30636;BME280;17400;52.392;9.750;2023-04-22T08:15:27;100325.78;;;17.36;62.42
30636;BME280;17400;52.392;9.750;2023-04-22T08:17:56;100314.63;;;17.37;61.11
30636;BME280;17400;52.392;9.750;2023-04-22T08:20:24;100324.94;;;17.52;61.71
30636;BME280;17400;52.392;9.750;2023-04-22T08:22:52;100324.22;;;17.40;60.30
30636;BME280;17400;52.392;9.750;2023-04-22T08:25:24;100320.56;;;17.34;61.18
30636;BME280;17400;52.392;9.750;2023-04-22T08:27:52;100326.19;;;17.44;61.36
30636;BME280;17400;52.392;9.750;2023-04-22T08:30:20;100320.47;;;17.46;60.37
30636;BME280;17400;52.392;9.750;2023-04-22T08:32:49;100325.75;;;17.53;59.83
30636;BME280;17400;52.392;9.750;2023-04-22T08:35:20;100316.22;;;17.55;59.02
30636;BME280;17400;52.392;9.750;2023-04-22T08:37:48;100311.13;;;17.64;60.76
30636;BME280;17400;52.392;9.750;2023-04-22T08:40:15;100315.41;;;17.77;58.06
30636;BME280;17400;52.392;9.750;2023-04-22T08:42:43;100316.50;;;17.98;57.91
30636;BME280;17400;52.392;9.750;2023-04-22T08:45:12;100309.28;;;18.14;57.16
30636;BME280;17400;52.392;9.750;2023-04-22T08:47:41;100310.69;;;18.17;54.71
30636;BME280;17400;52.392;9.750;2023-04-22T08:50:09;100317.31;;;18.21;53.98
30636;BME280;17400;52.392;9.750;2023-04-22T08:52:41;100317.38;;;18.26;54.54
30636;BME280;17400;52.392;9.750;2023-04-22T08:55:09;100317.41;;;18.31;53.30
30636;BME280;17400;52.392;9.750;2023-04-22T08:57:37;100311.16;;;18.36;53.34
30636;BME280;17400;52.392;9.750;2023-04-22T09:00:07;100311.25;;;18.46;53.16
30636;BME280;17400;52.392;9.750;2023-04-22T09:02:37;100301.00;;;18.63;53.68
30636;BME280;17400;52.392;9.750;2023-04-22T09:05:11;100300.22;;;18.73;53.72
30636;BME280;17400;52.392;9.750;2023-04-22T09:07:41;100295.59;;;18.74;52.24
30636;BME280;17400;52.392;9.750;2023-04-22T09:10:09;100292.59;;;18.75;52.04
30636;BME280;17400;52.392;9.750;2023-04-22T09:12:39;100292.59;;;18.75;52.14
30636;BME280;17400;52.392;9.750;2023-04-22T09:15:08;100288.50;;;18.78;52.00
30636;BME280;17400;52.392;9.750;2023-04-22T09:17:36;100283.06;;;18.83;51.79
30636;BME280;17400;52.392;9.750;2023-04-22T09:20:06;100283.88;;;18.84;51.61
30636;BME280;17400;52.392;9.750;2023-04-22T09:22:38;100279.22;;;18.84;52.31
30636;BME280;17400;52.392;9.750;2023-04-22T09:25:14;100273.47;;;18.86;52.01
30636;BME280;17400;52.392;9.750;2023-04-22T09:27:42;100271.06;;;18.89;51.86
30636;BME280;17400;52.392;9.750;2023-04-22T09:30:10;100270.00;;;18.95;51.80
30636;BME280;17400;52.392;9.750;2023-04-22T09:32:40;100274.28;;;18.86;52.07
30636;BME280;17400;52.392;9.750;2023-04-22T09:35:08;100266.41;;;18.90;52.97
30636;BME280;17400;52.392;9.750;2023-04-22T09:37:35;100265.78;;;18.88;52.62
30636;BME280;17400;52.392;9.750;2023-04-22T09:40:17;100264.97;;;18.87;53.17
30636;BME280;17400;52.392;9.750;2023-04-22T09:42:48;100262.00;;;18.89;52.99
30636;BME280;17400;52.392;9.750;2023-04-22T09:45:29;100258.03;;;19.12;52.56
30636;BME280;17400;52.392;9.750;2023-04-22T09:48:00;100262.50;;;19.28;52.29
30636;BME280;17400;52.392;9.750;2023-04-22T09:50:28;100255.13;;;19.34;51.35
30636;BME280;17400;52.392;9.750;2023-04-22T09:52:58;100248.28;;;19.37;52.44
30636;BME280;17400;52.392;9.750;2023-04-22T09:55:30;100239.81;;;19.38;52.48
30636;BME280;17400;52.392;9.750;2023-04-22T09:58:04;100236.53;;;19.46;51.71
30636;BME280;17400;52.392;9.750;2023-04-22T10:00:34;100240.69;;;19.54;51.64
30636;BME280;17400;52.392;9.750;2023-04-22T10:03:04;100242.31;;;19.55;51.96
30636;BME280;17400;52.392;9.750;2023-04-22T10:05:35;100244.84;;;19.62;50.49
30636;BME280;17400;52.392;9.750;2023-04-22T10:08:03;100234.41;;;19.69;50.32
30636;BME280;17400;52.392;9.750;2023-04-22T10:10:34;100234.13;;;19.71;49.89
30636;BME280;17400;52.392;9.750;2023-04-22T10:13:03;100228.38;;;19.77;50.13
30636;BME280;17400;52.392;9.750;2023-04-22T10:15:34;100230.91;;;19.84;49.95
30636;BME280;17400;52.392;9.750;2023-04-22T10:18:04;100227.91;;;19.96;49.09
30636;BME280;17400;52.392;9.750;2023-04-22T10:20:36;100223.81;;;20.04;48.61
30636;BME280;17400;52.392;9.750;2023-04-22T10:23:12;100225.75;;;20.08;49.58
30636;BME280;17400;52.392;9.750;2023-04-22T10:25:41;100210.91;;;20.09;49.80
30636;BME280;17400;52.392;9.750;2023-04-22T10:28:09;100215.59;;;20.14;49.50
30636;BME280;17400;52.392;9.750;2023-04-22T10:30:38;100208.16;;;20.14;49.64
30636;BME280;17400;52.392;9.750;2023-04-22T10:33:35;100210.09;;;20.19;50.28
30636;BME280;17400;52.392;9.750;2023-04-22T10:36:09;100203.22;;;20.17;48.03
30636;BME280;17400;52.392;9.750;2023-04-22T10:38:39;100207.38;;;20.29;47.59
30636;BME280;17400;52.392;9.750;2023-04-22T10:41:13;100200.50;;;20.27;46.88
30636;BME280;17400;52.392;9.750;2023-04-22T10:43:42;100206.78;;;20.27;46.59
30636;BME280;17400;52.392;9.750;2023-04-22T10:49:22;100199.38;;;20.33;46.41
30636;BME280;17400;52.392;9.750;2023-04-22T10:51:51;100202.41;;;20.37;46.84
30636;BME280;17400;52.392;9.750;2023-04-22T10:54:57;100192.22;;;20.42;45.70
30636;BME280;17400;52.392;9.750;2023-04-22T10:57:33;100188.38;;;20.48;44.99
30636;BME280;17400;52.392;9.750;2023-04-22T11:00:24;100191.13;;;20.54;44.38
30636;BME280;17400;52.392;9.750;2023-04-22T11:03:08;100186.44;;;20.59;45.08
30636;BME280;17400;52.392;9.750;2023-04-22T11:05:36;100185.63;;;20.69;43.59
30636;BME280;17400;52.392;9.750;2023-04-22T11:08:07;100183.41;;;20.76;43.72
30636;BME280;17400;52.392;9.750;2023-04-22T11:10:38;100173.78;;;20.79;43.61
30636;BME280;17400;52.392;9.750;2023-04-22T11:13:13;100167.97;;;20.86;43.60
30636;BME280;17400;52.392;9.750;2023-04-22T11:15:42;100168.47;;;20.98;43.39
30636;BME280;17400;52.392;9.750;2023-04-22T11:18:15;100169.31;;;21.04;42.86
30636;BME280;17400;52.392;9.750;2023-04-22T11:20:43;100159.66;;;21.11;43.26
30636;BME280;17400;52.392;9.750;2023-04-22T11:23:19;100165.06;;;21.27;42.21
30636;BME280;17400;52.392;9.750;2023-04-22T11:25:47;100162.00;;;21.39;42.48
30636;BME280;17400;52.392;9.750;2023-04-22T11:28:19;100162.50;;;21.51;41.79
30636;BME280;17400;52.392;9.750;2023-04-22T11:30:48;100155.88;;;21.57;41.80
30636;BME280;17400;52.392;9.750;2023-04-22T11:33:17;100150.91;;;21.59;41.67
30636;BME280;17400;52.392;9.750;2023-04-22T11:35:48;100161.63;;;21.61;41.42
30636;BME280;17400;52.392;9.750;2023-04-22T11:38:15;100148.16;;;21.59;41.93
30636;BME280;17400;52.392;9.750;2023-04-22T11:40:43;100153.03;;;21.73;42.21
30636;BME280;17400;52.392;9.750;2023-04-22T11:43:13;100146.38;;;21.79;41.71
30636;BME280;17400;52.392;9.750;2023-04-22T11:45:42;100142.16;;;21.87;41.82
30636;BME280;17400;52.392;9.750;2023-04-22T11:48:10;100133.22;;;22.05;41.52
30636;BME280;17400;52.392;9.750;2023-04-22T11:50:39;100138.50;;;22.02;41.89
30636;BME280;17400;52.392;9.750;2023-04-22T11:53:13;100139.25;;;22.07;41.77
30636;BME280;17400;52.392;9.750;2023-04-22T11:55:42;100126.81;;;22.15;41.95
30636;BME280;17400;52.392;9.750;2023-04-22T11:58:13;100133.03;;;22.26;41.62
30636;BME280;17400;52.392;9.750;2023-04-22T12:00:44;100122.47;;;22.38;41.96
30636;BME280;17400;52.392;9.750;2023-04-22T12:03:16;100130.19;;;22.41;41.44
30636;BME280;17400;52.392;9.750;2023-04-22T12:05:46;100124.06;;;22.44;41.32
30636;BME280;17400;52.392;9.750;2023-04-22T12:08:15;100126.78;;;22.50;41.29
30636;BME280;17400;52.392;9.750;2023-04-22T12:10:44;100123.69;;;22.56;39.75
30636;BME280;17400;52.392;9.750;2023-04-22T12:13:18;100118.34;;;22.65;39.79
30636;BME280;17400;52.392;9.750;2023-04-22T12:15:53;100115.28;;;22.67;39.38
30636;BME280;17400;52.392;9.750;2023-04-22T12:18:28;100116.94;;;22.68;39.17
30636;BME280;17400;52.392;9.750;2023-04-22T12:20:58;100112.09;;;22.54;39.68
30636;BME280;17400;52.392;9.750;2023-04-22T12:23:26;100110.00;;;22.46;40.09
30636;BME280;17400;52.392;9.750;2023-04-22T12:25:55;100113.03;;;22.44;40.69
30636;BME280;17400;52.392;9.750;2023-04-22T12:28:22;100109.63;;;22.53;40.39
30636;BME280;17400;52.392;9.750;2023-04-22T12:30:52;100107.88;;;22.62;40.61
30636;BME280;17400;52.392;9.750;2023-04-22T12:33:20;100095.75;;;22.63;41.30
30636;BME280;17400;52.392;9.750;2023-04-22T12:35:47;100101.91;;;22.55;41.02
30636;BME280;17400;52.392;9.750;2023-04-22T12:38:18;100083.66;;;22.59;41.25
30636;BME280;17400;52.392;9.750;2023-04-22T12:40:46;100099.56;;;22.67;40.81
30636;BME280;17400;52.392;9.750;2023-04-22T12:43:14;100088.56;;;22.62;40.75
30636;BME280;17400;52.392;9.750;2023-04-22T12:45:42;100085.59;;;22.58;40.30
30636;BME280;17400;52.392;9.750;2023-04-22T12:48:11;100083.91;;;22.62;40.68
30636;BME280;17400;52.392;9.750;2023-04-22T12:50:39;100083.72;;;22.54;40.07
30636;BME280;17400;52.392;9.750;2023-04-22T12:53:07;100080.69;;;22.50;39.69
30636;BME280;17400;52.392;9.750;2023-04-22T12:55:37;100084.66;;;22.44;39.63
30636;BME280;17400;52.392;9.750;2023-04-22T12:58:04;100083.47;;;22.50;39.75
30636;BME280;17400;52.392;9.750;2023-04-22T13:00:32;100086.47;;;22.54;38.95
30636;BME280;17400;52.392;9.750;2023-04-22T13:03:00;100081.72;;;22.59;39.23